createdAt,value
2018-04-26T00:00:06.241Z,82.65
2018-04-26T00:02:34.104Z,80.22
2018-04-26T00:05:01.975Z,81.60
2018-04-26T00:07:29.839Z,86.87
2018-04-26T00:09:57.807Z,81.68
2018-04-26T00:12:25.780Z,85.32
2018-04-26T00:14:53.642Z,80.62
2018-04-26T00:17:21.613Z,83.85
2018-04-26T00:19:50.299Z,83.80
2018-04-26T00:22:18.131Z,84.72
2018-04-26T00:24:46.027Z,82.47
2018-04-26T00:27:13.855Z,83.50
2018-04-26T00:29:41.863Z,80.97
2018-04-26T00:32:09.836Z,84.82
2018-04-26T00:34:38.007Z,83.45
2018-04-26T00:37:05.976Z,83.15
2018-04-26T00:39:33.909Z,83.25
2018-04-26T00:42:01.810Z,83.80
2018-04-26T00:44:29.674Z,85.62
2018-04-26T00:46:57.544Z,82.93
2018-04-26T00:49:25.505Z,85.60
2018-04-26T00:52:01.260Z,84.55
2018-04-26T00:54:29.333Z,86.78
2018-04-26T00:56:57.193Z,82.22
2018-04-26T00:59:25.060Z,86.37
2018-04-26T01:01:53.032Z,81.80
2018-04-26T01:04:20.892Z,86.60
2018-04-26T01:06:48.759Z,83.22
2018-04-26T01:09:16.630Z,87.40
2018-04-26T01:11:44.493Z,86.28
2018-04-26T01:14:12.362Z,84.32
2018-04-26T01:16:40.231Z,83.03
2018-04-26T01:19:08.367Z,84.15
2018-04-26T01:21:36.274Z,81.10
2018-04-26T01:24:04.273Z,84.28
2018-04-26T01:26:32.917Z,83.75
2018-04-26T01:29:00.792Z,83.15
2018-04-26T01:31:28.651Z,85.78
2018-04-26T01:33:56.516Z,81.75
2018-04-26T01:36:36.571Z,85.47
2018-04-26T01:39:04.541Z,81.97
2018-04-26T01:41:32.507Z,84.85
2018-04-26T01:44:00.380Z,80.03
2018-04-26T01:46:28.238Z,84.18
2018-04-26T01:48:56.102Z,82.75
2018-04-26T01:51:24.019Z,82.40
2018-04-26T01:53:51.944Z,81.35
2018-04-26T01:56:19.904Z,83.03
2018-04-26T01:58:47.776Z,84.43
2018-04-26T02:01:15.644Z,78.12
2018-04-26T02:03:43.611Z,81.22
2018-04-26T02:06:11.520Z,80.78
2018-04-26T02:08:39.451Z,82.30
2018-04-26T02:11:07.313Z,82.80
2018-04-26T02:13:35.175Z,82.03
2018-04-26T02:16:03.013Z,83.53
2018-04-26T02:18:31.010Z,80.82
2018-04-26T02:20:58.873Z,81.85
2018-04-26T02:23:26.846Z,84.35
2018-04-26T02:25:54.685Z,83.03
2018-04-26T02:28:22.787Z,81.80
2018-04-26T02:34:10.653Z,81.53
2018-04-26T02:36:38.608Z,81.72
2018-04-26T02:39:06.688Z,82.07
2018-04-26T02:41:34.540Z,85.95
2018-04-26T02:44:02.407Z,83.15
2018-04-26T02:46:30.276Z,82.78
2018-04-26T02:48:58.201Z,84.65
2018-04-26T02:51:26.107Z,81.53
2018-04-26T02:53:53.970Z,84.90
2018-04-26T02:56:21.841Z,85.40
2018-04-26T02:58:49.706Z,81.70
2018-04-26T03:01:17.568Z,84.47
2018-04-26T03:03:45.439Z,83.75
2018-04-26T03:06:13.303Z,81.72
2018-04-26T03:08:41.272Z,82.75
2018-04-26T03:11:09.137Z,84.47
2018-04-26T03:13:37.001Z,84.95
2018-04-26T03:16:04.972Z,84.30
2018-04-26T03:18:32.936Z,85.75
2018-04-26T03:21:00.906Z,84.18
2018-04-26T03:23:28.776Z,85.00
2018-04-26T03:25:56.639Z,81.75
2018-04-26T03:28:24.503Z,83.65
2018-04-26T03:30:52.483Z,84.18
2018-04-26T03:33:20.440Z,85.12
2018-04-26T03:35:48.309Z,83.25
2018-04-26T03:38:16.176Z,85.35
2018-04-26T03:40:44.046Z,83.47
2018-04-26T03:43:12.179Z,90.53
2018-04-26T03:45:40.242Z,89.05
2018-04-26T03:48:08.149Z,85.65
2018-04-26T03:50:36.124Z,86.15
2018-04-26T03:53:03.986Z,83.87
2018-04-26T03:55:32.707Z,86.65
2018-04-26T03:58:01.356Z,84.97
2018-04-26T04:00:40.998Z,88.93
2018-04-26T04:03:20.638Z,84.72
2018-04-26T04:06:09.194Z,83.87
2018-04-26T04:08:37.164Z,85.40
2018-04-26T04:11:05.228Z,83.60
2018-04-26T04:13:33.096Z,87.95
2018-04-26T04:16:00.963Z,84.80
2018-04-26T04:18:29.647Z,87.57
2018-04-26T04:20:57.523Z,86.28
2018-04-26T04:23:25.378Z,87.15
2018-04-26T04:25:53.349Z,86.22
2018-04-26T04:28:21.321Z,86.22
2018-04-26T04:30:49.286Z,85.62
2018-04-26T04:33:17.182Z,86.35
2018-04-26T04:35:45.840Z,84.75
2018-04-26T04:38:14.044Z,88.18
2018-04-26T04:40:49.180Z,96.45
2018-04-26T04:43:18.072Z,85.97
2018-04-26T04:45:47.270Z,87.20
2018-04-26T04:48:16.057Z,93.82
2018-04-26T04:50:44.942Z,97.40
2018-04-26T04:53:13.821Z,88.85
2018-04-26T04:55:41.771Z,86.32
2018-04-26T04:58:09.653Z,88.68
2018-04-26T05:00:37.608Z,88.03
2018-04-26T05:03:05.525Z,86.75
2018-04-26T05:05:33.443Z,97.65
2018-04-26T05:08:01.407Z,88.07
2018-04-26T05:10:29.388Z,96.65
2018-04-26T05:12:58.807Z,102.82
2018-04-26T05:15:26.799Z,92.03
2018-04-26T05:17:54.716Z,89.82
2018-04-26T05:20:22.686Z,92.18
2018-04-26T05:22:50.831Z,88.22
2018-04-26T05:25:18.741Z,89.47
2018-04-26T05:27:46.667Z,89.57
2018-04-26T05:30:14.766Z,97.47
2018-04-26T05:32:42.653Z,92.03
2018-04-26T05:35:11.427Z,89.95
2018-04-26T05:37:40.823Z,97.65
2018-04-26T05:40:08.684Z,99.20
2018-04-26T05:42:36.549Z,96.70
2018-04-26T05:45:04.521Z,94.85
2018-04-26T05:47:32.293Z,102.97
2018-04-26T05:50:00.261Z,109.35
2018-04-26T05:52:28.126Z,105.37
2018-04-26T05:54:55.970Z,99.03
2018-04-26T05:57:23.864Z,104.50
2018-04-26T05:59:53.252Z,99.60
2018-04-26T06:02:21.227Z,107.43
2018-04-26T06:04:49.296Z,98.55
2018-04-26T06:07:17.265Z,98.60
2018-04-26T06:09:45.230Z,98.22
2018-04-26T06:12:13.195Z,94.95
2018-04-26T06:14:41.118Z,96.72
2018-04-26T06:17:09.113Z,96.37
2018-04-26T06:19:36.954Z,97.75
2018-04-26T06:22:04.971Z,98.03
2018-04-26T06:24:33.043Z,101.95
2018-04-26T06:27:01.008Z,96.78
2018-04-26T06:29:28.979Z,101.05
2018-04-26T06:31:56.945Z,100.15
2018-04-26T06:34:24.811Z,102.80
2018-04-26T06:36:52.812Z,96.22
2018-04-26T06:39:21.566Z,95.82
2018-04-26T06:41:49.535Z,96.43
2018-04-26T06:44:17.408Z,95.55
2018-04-26T06:46:45.479Z,92.60
2018-04-26T06:49:13.337Z,88.97
2018-04-26T06:51:41.413Z,90.85
2018-04-26T06:54:09.279Z,89.03
2018-04-26T06:56:37.145Z,89.35
2018-04-26T06:59:05.118Z,87.40
2018-04-26T07:01:32.979Z,88.12
2018-04-26T07:04:00.794Z,89.15
2018-04-26T07:06:28.710Z,91.63
2018-04-26T07:08:56.576Z,86.40
2018-04-26T07:11:24.544Z,87.37
2018-04-26T07:13:52.412Z,86.82
2018-04-26T07:16:20.380Z,84.95
2018-04-26T07:18:48.247Z,86.47
2018-04-26T07:21:16.112Z,83.32
2018-04-26T07:23:44.187Z,85.62
2018-04-26T07:26:12.195Z,85.10
2018-04-26T07:28:40.936Z,89.62
2018-04-26T07:31:08.710Z,86.47
2018-04-26T07:33:36.565Z,88.30
2018-04-26T07:36:04.436Z,86.35
2018-04-26T07:38:32.409Z,84.30
2018-04-26T07:41:00.372Z,87.43
2018-04-26T07:43:28.354Z,85.65
2018-04-26T07:45:57.024Z,86.85
2018-04-26T07:48:24.890Z,87.37
2018-04-26T07:50:52.859Z,85.43
2018-04-26T07:53:20.672Z,89.72
2018-04-26T07:55:48.692Z,84.50
2018-04-26T07:58:16.563Z,81.45
2018-04-26T08:00:44.632Z,84.93
2018-04-26T08:03:12.464Z,86.32
2018-04-26T08:05:40.337Z,85.50
2018-04-26T08:08:08.195Z,91.28
2018-04-26T08:10:36.093Z,93.60
2018-04-26T08:13:03.961Z,91.85
2018-04-26T08:15:31.729Z,91.45
2018-04-26T08:17:59.514Z,91.40
2018-04-26T08:20:28.069Z,94.03
2018-04-26T08:22:55.850Z,92.68
2018-04-26T08:25:24.444Z,93.55
2018-04-26T08:27:53.207Z,88.22
2018-04-26T08:30:21.074Z,86.53
2018-04-26T08:32:49.045Z,87.07
2018-04-26T08:35:17.727Z,85.05
2018-04-26T08:37:45.706Z,83.85
2018-04-26T08:40:14.480Z,84.30
2018-04-26T08:42:42.347Z,83.55
2018-04-26T08:45:10.212Z,86.07
2018-04-26T08:47:38.079Z,86.70
2018-04-26T08:50:05.946Z,85.38
2018-04-26T08:52:34.944Z,88.00
2018-04-26T08:55:02.804Z,86.75
2018-04-26T08:57:30.585Z,92.43
2018-04-26T08:59:58.434Z,93.22
2018-04-26T09:02:26.403Z,93.43
2018-04-26T09:04:54.484Z,87.93
2018-04-26T09:07:22.337Z,91.10
2018-04-26T09:09:50.414Z,87.75
2018-04-26T09:12:18.384Z,92.10
2018-04-26T09:14:47.273Z,90.38
2018-04-26T09:17:15.951Z,88.95
2018-04-26T09:19:43.930Z,88.32
2018-04-26T09:22:12.663Z,88.55
2018-04-26T09:24:41.495Z,89.22
2018-04-26T09:27:09.423Z,87.30
2018-04-26T09:29:37.233Z,87.30
2018-04-26T09:32:05.163Z,87.75
2018-04-26T09:34:33.178Z,89.57
2018-04-26T09:37:01.953Z,87.82
2018-04-26T09:39:29.910Z,88.18
2018-04-26T09:41:57.706Z,88.28
2018-04-26T09:44:25.489Z,89.07
2018-04-26T09:46:54.205Z,84.55
2018-04-26T09:49:22.204Z,88.85
2018-04-26T09:51:50.789Z,89.68
2018-04-26T09:54:20.197Z,88.20
2018-04-26T09:56:48.980Z,81.57
2018-04-26T09:59:16.952Z,87.20
2018-04-26T10:01:45.135Z,87.60
2018-04-26T10:04:15.137Z,86.93
2018-04-26T10:06:48.693Z,85.75
2018-04-26T10:09:16.913Z,83.15
2018-04-26T10:11:44.877Z,86.12
2018-04-26T10:14:13.157Z,84.37
2018-04-26T10:16:42.802Z,87.50
2018-04-26T10:19:11.505Z,88.93
2018-04-26T10:21:39.534Z,86.57
2018-04-26T10:24:07.652Z,86.10
2018-04-26T10:26:35.575Z,87.50
2018-04-26T10:29:03.639Z,88.95
2018-04-26T10:31:31.603Z,88.18
2018-04-26T10:34:00.384Z,91.65
2018-04-26T10:36:28.250Z,88.35
2018-04-26T10:38:56.301Z,87.12
2018-04-26T10:41:24.246Z,89.05
2018-04-26T10:43:52.460Z,84.72
2018-04-26T10:46:20.286Z,85.90
2018-04-26T10:48:48.275Z,84.37
2018-04-26T10:51:16.401Z,85.57
2018-04-26T10:53:44.334Z,86.60
2018-04-26T10:56:12.368Z,88.12
2018-04-26T10:58:40.281Z,85.85
2018-04-26T11:01:08.239Z,90.97
2018-04-26T11:03:36.181Z,84.55
2018-04-26T11:06:04.052Z,86.60
2018-04-26T11:08:31.900Z,86.32
2018-04-26T11:10:59.710Z,86.53
2018-04-26T11:13:27.678Z,88.20
2018-04-26T11:15:55.504Z,84.15
2018-04-26T11:18:23.370Z,86.05
2018-04-26T11:20:51.463Z,87.30
2018-04-26T11:23:20.095Z,87.82
2018-04-26T11:25:48.847Z,82.53
2018-04-26T11:28:16.633Z,81.72
2018-04-26T11:30:44.484Z,87.18
2018-04-26T11:33:12.328Z,88.15
2018-04-26T11:35:40.102Z,83.78
2018-04-26T11:38:07.975Z,87.10
2018-04-26T11:40:35.961Z,81.25
2018-04-26T11:43:03.826Z,82.37
2018-04-26T11:45:31.615Z,81.72
2018-04-26T11:48:00.165Z,83.28
2018-04-26T11:50:28.050Z,83.40
2018-04-26T11:52:56.816Z,75.93
2018-04-26T11:55:24.782Z,83.68
2018-04-26T11:57:52.645Z,81.53
2018-04-26T12:00:20.516Z,79.55
2018-04-26T12:02:48.401Z,77.90
2018-04-26T12:05:16.137Z,79.60
2018-04-26T12:07:44.057Z,80.45
2018-04-26T12:10:11.933Z,78.43
2018-04-26T12:12:39.677Z,80.65
2018-04-26T12:15:08.319Z,76.57
2018-04-26T12:17:36.186Z,78.18
2018-04-26T12:20:04.068Z,77.90
2018-04-26T12:22:32.081Z,81.25
2018-04-26T12:24:59.886Z,79.45
2018-04-26T12:27:27.716Z,81.90
2018-04-26T12:29:55.474Z,82.93
2018-04-26T12:32:23.238Z,84.20
2018-04-26T12:34:51.020Z,86.45
2018-04-26T12:37:18.790Z,83.07
2018-04-26T12:39:46.591Z,83.22
2018-04-26T12:42:14.483Z,85.87
2018-04-26T12:44:42.313Z,88.32
2018-04-26T12:47:10.173Z,88.40
2018-04-26T12:49:38.155Z,88.85
2018-04-26T12:52:06.227Z,87.72
2018-04-26T12:54:34.182Z,91.50
2018-04-26T12:57:02.869Z,82.97
2018-04-26T12:59:30.738Z,88.03
2018-04-26T13:01:58.597Z,83.80
2018-04-26T13:04:26.382Z,87.65
2018-04-26T13:06:54.954Z,85.35
2018-04-26T13:09:22.767Z,86.32
2018-04-26T13:11:50.652Z,83.82
2018-04-26T13:14:18.745Z,86.07
2018-04-26T13:16:46.718Z,86.25
2018-04-26T13:19:14.660Z,85.12
2018-04-26T13:21:42.504Z,86.20
2018-04-26T13:24:10.413Z,84.18
2018-04-26T13:26:38.590Z,87.05
2018-04-26T13:29:06.579Z,82.50
2018-04-26T13:31:34.640Z,89.65
2018-04-26T13:34:03.515Z,88.37
2018-04-26T13:36:31.380Z,89.18
2018-04-26T13:38:59.453Z,85.28
2018-04-26T13:41:27.419Z,89.72
2018-04-26T13:43:55.355Z,86.45
2018-04-26T13:46:23.328Z,88.03
2018-04-26T13:48:51.428Z,89.20
2018-04-26T13:51:19.406Z,87.10
2018-04-26T13:53:47.384Z,87.28
2018-04-26T13:56:15.235Z,87.57
2018-04-26T13:58:43.406Z,87.65
2018-04-26T14:01:11.486Z,89.18
2018-04-26T14:03:39.302Z,85.68
2018-04-26T14:06:07.160Z,87.97
2018-04-26T14:08:35.001Z,89.10
2018-04-26T14:11:03.868Z,83.68
2018-04-26T14:13:31.732Z,88.50
2018-04-26T14:15:59.551Z,84.47
2018-04-26T14:18:27.672Z,86.85
2018-04-26T14:20:55.744Z,83.85
2018-04-26T14:23:25.448Z,92.50
2018-04-26T14:25:55.160Z,86.95
2018-04-26T14:28:23.090Z,85.90
2018-04-26T14:30:51.302Z,86.68
2018-04-26T14:33:20.903Z,88.12
2018-04-26T14:35:48.874Z,97.37
2018-04-26T14:38:17.046Z,87.78
2018-04-26T14:40:45.019Z,90.07
2018-04-26T14:43:13.119Z,88.32
2018-04-26T14:45:41.164Z,86.72
2018-04-26T14:48:08.986Z,87.45
2018-04-26T14:50:37.107Z,88.22
2018-04-26T14:53:06.598Z,88.93
2018-04-26T14:55:34.680Z,89.93
2018-04-26T14:58:02.738Z,88.15
2018-04-26T15:00:30.928Z,89.40
2018-04-26T15:02:59.715Z,88.37
2018-04-26T15:05:27.967Z,88.93
2018-04-26T15:07:56.093Z,85.30
2018-04-26T15:10:24.735Z,90.15
2018-04-26T15:12:52.705Z,89.43
2018-04-26T15:15:20.855Z,88.28
2018-04-26T15:17:48.842Z,88.12
2018-04-26T15:20:16.816Z,86.35
2018-04-26T15:22:44.743Z,87.12
2018-04-26T15:25:12.753Z,86.40
2018-04-26T15:27:40.833Z,89.05
2018-04-26T15:30:08.708Z,87.12
2018-04-26T15:32:37.437Z,90.20
2018-04-26T15:35:05.347Z,88.97
2018-04-26T15:37:33.393Z,89.57
2018-04-26T15:40:02.927Z,84.70
2018-04-26T15:42:30.704Z,90.40
2018-04-26T15:44:59.330Z,89.43
2018-04-26T15:47:27.459Z,88.00
2018-04-26T15:49:56.306Z,86.97
2018-04-26T15:52:41.914Z,90.18
2018-04-26T15:55:22.826Z,89.50
2018-04-26T15:58:12.360Z,87.60
2018-04-26T16:00:58.060Z,86.85
2018-04-26T16:03:38.708Z,86.30
2018-04-26T16:06:32.485Z,86.12
2018-04-26T16:09:12.118Z,87.97
2018-04-26T16:11:52.175Z,90.30
2018-04-26T16:14:34.970Z,95.35
2018-04-26T16:17:29.503Z,89.85
2018-04-26T16:20:15.881Z,89.28
2018-04-26T16:23:01.468Z,87.60
2018-04-26T16:25:42.000Z,92.25
2018-04-26T16:28:27.613Z,95.40
2018-04-26T16:31:13.041Z,84.82
2018-04-26T16:33:52.843Z,93.75
2018-04-26T16:36:32.685Z,90.32
2018-04-26T16:41:56.680Z,92.25
2018-04-26T16:44:24.817Z,93.07
2018-04-26T16:46:52.838Z,89.65
2018-04-26T16:49:21.656Z,87.12
2018-04-26T16:51:49.782Z,89.43
2018-04-26T16:54:17.752Z,89.45
2018-04-26T16:56:45.948Z,86.60
2018-04-26T16:59:14.831Z,88.28
2018-04-26T17:01:43.697Z,90.72
2018-04-26T17:04:11.914Z,89.82
2018-04-26T17:06:40.771Z,96.22
2018-04-26T17:09:08.868Z,91.78
2018-04-26T17:11:37.617Z,92.30
2018-04-26T17:14:05.729Z,93.22
2018-04-26T17:16:33.802Z,91.97
2018-04-26T17:19:02.456Z,89.93
2018-04-26T17:21:31.260Z,91.97
2018-04-26T17:24:00.177Z,94.13
2018-04-26T17:26:28.195Z,90.43
2018-04-26T17:28:56.279Z,90.30
2018-04-26T17:31:24.174Z,91.43
2018-04-26T17:33:52.347Z,94.97
2018-04-26T17:36:20.512Z,91.47
2018-04-26T17:38:49.324Z,91.15
2018-04-26T17:41:17.450Z,96.43
2018-04-26T17:43:46.272Z,90.57
2018-04-26T17:46:15.153Z,97.40
2018-04-26T17:48:44.373Z,93.25
2018-04-26T17:51:12.639Z,92.80
2018-04-26T17:53:40.810Z,95.18
2018-04-26T17:56:08.882Z,94.30
2018-04-26T17:58:37.029Z,97.30
2018-04-26T18:01:05.312Z,98.72
2018-04-26T18:03:33.935Z,97.25
2018-04-26T18:06:02.803Z,94.60
2018-04-26T18:08:31.053Z,93.57
2018-04-26T18:11:00.062Z,93.20
2018-04-26T18:13:29.052Z,99.18
2018-04-26T18:15:58.572Z,95.62
2018-04-26T18:18:26.473Z,95.22
2018-04-26T18:20:54.398Z,89.85
2018-04-26T18:23:22.367Z,93.72
2018-04-26T18:25:50.363Z,92.95
2018-04-26T18:28:18.326Z,95.57
2018-04-26T18:30:46.227Z,93.82
2018-04-26T18:33:14.437Z,102.17
2018-04-26T18:35:42.601Z,99.43
2018-04-26T18:38:11.628Z,94.68
2018-04-26T18:40:39.608Z,99.13
2018-04-26T18:43:09.859Z,102.10
2018-04-26T18:45:35.575Z,99.10
2018-04-26T18:48:03.405Z,93.75
2018-04-26T18:50:31.330Z,97.95
2018-04-26T18:53:00.271Z,91.85
2018-04-26T18:55:28.318Z,90.07
2018-04-26T18:57:56.300Z,90.38
2018-04-26T19:00:24.098Z,86.00
2018-04-26T19:02:51.961Z,87.15
2018-04-26T19:05:20.400Z,93.05
2018-04-26T19:07:48.254Z,88.50
2018-04-26T19:10:16.200Z,90.65
2018-04-26T19:12:44.839Z,86.85
2018-04-26T19:15:12.761Z,93.22
2018-04-26T19:17:41.486Z,89.35
2018-04-26T19:20:09.311Z,95.90
2018-04-26T19:22:38.001Z,89.20
2018-04-26T19:25:06.939Z,89.28
2018-04-26T19:27:34.925Z,92.80
2018-04-26T19:30:02.942Z,87.47
2018-04-26T19:32:30.834Z,93.80
2018-04-26T19:34:58.754Z,86.65
2018-04-26T19:37:27.414Z,88.45
2018-04-26T19:39:55.390Z,88.70
2018-04-26T19:42:23.216Z,86.63
2018-04-26T19:44:51.127Z,87.12
2018-04-26T19:47:19.085Z,91.25
2018-04-26T19:49:47.343Z,86.70
2018-04-26T19:52:15.180Z,85.10
2018-04-26T19:54:43.116Z,91.87
2018-04-26T19:57:12.225Z,86.35
2018-04-26T19:59:41.059Z,96.82
2018-04-26T20:02:08.979Z,91.60
2018-04-26T20:04:37.716Z,93.10
2018-04-26T20:07:05.526Z,94.05
2018-04-26T20:09:35.037Z,93.33
2018-04-26T20:12:04.383Z,92.67
2018-04-26T20:14:33.877Z,93.77
2018-04-26T20:17:03.114Z,89.10
2018-04-26T20:19:32.672Z,94.37
2018-04-26T20:22:02.073Z,90.82
2018-04-26T20:24:31.381Z,92.37
2018-04-26T20:27:00.659Z,91.00
2018-04-26T20:29:29.997Z,94.97
2018-04-26T20:31:59.415Z,92.85
2018-04-26T20:34:29.186Z,92.28
2018-04-26T20:36:58.509Z,89.78
2018-04-26T20:39:27.618Z,92.18
2018-04-26T20:41:57.903Z,90.32
2018-04-26T20:44:33.134Z,89.68
2018-04-26T20:47:02.321Z,88.18
2018-04-26T20:49:31.645Z,87.93
2018-04-26T20:52:00.822Z,88.45
2018-04-26T20:54:29.941Z,90.97
2018-04-26T20:56:59.169Z,84.40
2018-04-26T20:59:28.438Z,86.65
2018-04-26T21:01:57.595Z,87.72
2018-04-26T21:04:26.693Z,84.20
2018-04-26T21:06:56.063Z,83.68
2018-04-26T21:09:25.395Z,87.47
2018-04-26T21:11:54.659Z,88.50
2018-04-26T21:14:23.816Z,90.95
2018-04-26T21:16:52.987Z,89.95
2018-04-26T21:19:22.161Z,84.93
2018-04-26T21:21:51.323Z,83.45
2018-04-26T21:24:20.447Z,84.82
2018-04-26T21:26:49.729Z,83.45
2018-04-26T21:29:18.862Z,81.55
2018-04-26T21:31:48.028Z,83.60
2018-04-26T21:34:17.180Z,81.50
2018-04-26T21:36:46.391Z,80.10
2018-04-26T21:39:15.527Z,81.18
2018-04-26T21:41:44.663Z,83.80
2018-04-26T21:44:13.790Z,82.57
2018-04-26T21:46:42.911Z,79.68
2018-04-26T21:49:12.044Z,81.00
2018-04-26T21:51:47.043Z,81.30
2018-04-26T21:54:22.075Z,81.15
2018-04-26T21:56:57.197Z,79.82
2018-04-26T21:59:32.317Z,88.03
2018-04-26T22:02:07.480Z,81.97
2018-04-26T22:04:52.346Z,81.78
2018-04-26T22:07:21.547Z,83.75
2018-04-26T22:09:50.711Z,81.50
2018-04-26T22:12:20.013Z,83.78
2018-04-26T22:14:49.341Z,80.72
2018-04-26T22:17:18.643Z,88.72
2018-04-26T22:19:47.757Z,89.65
2018-04-26T22:22:16.896Z,82.43
2018-04-26T22:24:46.235Z,88.55
2018-04-26T22:27:15.435Z,87.37
2018-04-26T22:29:44.633Z,87.07
